createdAt,value
2022-10-09T00:00:49.810Z,7.59
2022-10-09T00:03:17.596Z,7.63
2022-10-09T00:05:45.209Z,7.61
2022-10-09T00:08:11.939Z,7.49
2022-10-09T00:10:43.279Z,7.52
2022-10-09T00:13:10.616Z,7.50
2022-10-09T00:15:45.368Z,7.44
2022-10-09T00:18:17.879Z,7.44
2022-10-09T00:20:46.299Z,7.39
2022-10-09T00:23:17.486Z,7.37
2022-10-09T00:25:55.843Z,7.29
2022-10-09T00:28:24.398Z,7.25
2022-10-09T00:30:51.124Z,7.18
2022-10-09T00:33:18.132Z,7.10
2022-10-09T00:35:44.638Z,7.10
2022-10-09T00:38:11.806Z,7.12
2022-10-09T00:40:39.306Z,7.11
2022-10-09T00:43:17.793Z,7.08
2022-10-09T00:45:50.500Z,7.05
2022-10-09T00:48:18.712Z,7.00
2022-10-09T00:50:53.169Z,6.99
2022-10-09T00:53:22.857Z,6.95
2022-10-09T00:55:49.925Z,6.91
2022-10-09T00:58:16.420Z,6.86
2022-10-09T01:00:42.947Z,6.82
2022-10-09T01:03:09.472Z,6.76
2022-10-09T01:06:06.620Z,6.75
2022-10-09T01:08:58.379Z,6.69
2022-10-09T01:11:49.828Z,6.66
2022-10-09T01:14:16.192Z,6.63
2022-10-09T01:17:21.553Z,6.63
2022-10-09T01:20:02.094Z,6.59
2022-10-09T01:23:20.023Z,6.57
2022-10-09T01:26:00.738Z,6.45
2022-10-09T01:28:29.365Z,6.47
2022-10-09T01:31:02.911Z,6.40
2022-10-09T01:33:31.650Z,6.29
2022-10-09T01:36:00.852Z,6.30
2022-10-09T01:38:28.912Z,6.29
2022-10-09T01:40:56.866Z,6.15
2022-10-09T01:43:23.341Z,6.24
2022-10-09T01:45:49.912Z,6.09
2022-10-09T01:48:23.718Z,6.15
2022-10-09T01:50:58.097Z,6.06
2022-10-09T01:53:24.916Z,5.94
2022-10-09T01:55:56.145Z,5.92
2022-10-09T01:58:58.330Z,5.92
2022-10-09T02:01:29.829Z,5.79
2022-10-09T02:03:59.737Z,5.94
2022-10-09T02:06:28.312Z,5.94
2022-10-09T02:08:55.722Z,5.91
2022-10-09T02:11:26.228Z,5.89
2022-10-09T02:13:53.930Z,5.87
2022-10-09T02:16:46.582Z,5.84
2022-10-09T02:19:30.190Z,5.75
2022-10-09T02:22:07.095Z,5.73
2022-10-09T02:24:34.188Z,5.32
2022-10-09T02:27:02.404Z,5.44
2022-10-09T02:29:29.085Z,5.55
2022-10-09T02:31:55.580Z,5.45
2022-10-09T02:34:22.259Z,5.20
2022-10-09T02:36:49.853Z,5.48
2022-10-09T02:39:16.869Z,5.52
2022-10-09T02:41:43.428Z,5.51
2022-10-09T02:44:10.346Z,5.51
2022-10-09T02:46:38.383Z,5.51
2022-10-09T02:49:05.945Z,5.52
2022-10-09T02:51:32.569Z,5.50
2022-10-09T02:54:02.010Z,5.52
2022-10-09T02:56:28.916Z,5.53
2022-10-09T02:58:55.408Z,5.41
2022-10-09T03:01:22.595Z,5.38
2022-10-09T03:03:49.205Z,5.36
2022-10-09T03:06:19.532Z,5.41
2022-10-09T03:08:48.515Z,5.41
2022-10-09T03:11:16.972Z,5.36
2022-10-09T03:13:43.745Z,5.34
2022-10-09T03:16:13.724Z,5.32
2022-10-09T03:18:40.549Z,5.26
2022-10-09T03:21:09.493Z,5.18
2022-10-09T03:23:37.609Z,5.19
2022-10-09T03:26:08.132Z,5.15
2022-10-09T03:28:40.283Z,5.03
2022-10-09T03:31:07.520Z,5.01
2022-10-09T03:33:35.651Z,4.97
2022-10-09T03:36:02.575Z,5.05
2022-10-09T03:38:29.056Z,5.07
2022-10-09T03:40:57.809Z,5.04
2022-10-09T03:43:24.370Z,5.07
2022-10-09T03:45:50.815Z,5.05
2022-10-09T03:48:17.281Z,4.97
2022-10-09T03:50:43.759Z,4.95
2022-10-09T03:53:11.989Z,4.94
2022-10-09T03:55:39.265Z,4.85
2022-10-09T03:58:06.091Z,4.80
2022-10-09T04:00:32.912Z,4.76
2022-10-09T04:02:59.498Z,4.74
2022-10-09T04:05:26.154Z,4.67
2022-10-09T04:07:52.597Z,4.67
2022-10-09T04:10:19.208Z,4.66
2022-10-09T04:12:45.757Z,4.63
2022-10-09T04:15:12.333Z,4.67
2022-10-09T04:17:38.882Z,4.66
2022-10-09T04:20:05.633Z,4.65
2022-10-09T04:22:32.166Z,4.63
2022-10-09T04:24:58.616Z,4.55
2022-10-09T04:27:25.146Z,4.37
2022-10-09T04:29:51.594Z,4.52
2022-10-09T04:32:18.105Z,4.50
2022-10-09T04:34:44.541Z,4.03
2022-10-09T04:37:10.988Z,4.37
2022-10-09T04:39:37.498Z,4.44
2022-10-09T04:42:04.239Z,4.45
2022-10-09T04:44:30.682Z,4.37
2022-10-09T04:46:59.588Z,4.37
2022-10-09T04:49:26.065Z,4.37
2022-10-09T04:51:52.597Z,4.35
2022-10-09T04:54:19.047Z,4.31
2022-10-09T04:56:45.480Z,4.28
2022-10-09T04:59:12.599Z,3.84
2022-10-09T05:01:39.109Z,4.22
2022-10-09T05:04:05.693Z,4.20
2022-10-09T05:06:32.248Z,4.21
2022-10-09T05:08:58.701Z,4.22
2022-10-09T05:11:25.931Z,4.24
2022-10-09T05:13:54.898Z,4.23
2022-10-09T05:16:24.794Z,4.24
2022-10-09T05:18:54.110Z,4.24
2022-10-09T05:21:21.302Z,4.24
2022-10-09T05:23:48.494Z,4.24
2022-10-09T05:26:17.670Z,4.26
2022-10-09T05:28:44.935Z,4.30
2022-10-09T05:31:20.786Z,4.35
2022-10-09T05:33:47.705Z,4.26
2022-10-09T05:36:14.465Z,4.40
2022-10-09T05:38:41.030Z,4.40
2022-10-09T05:41:10.296Z,4.42
2022-10-09T05:43:39.328Z,4.42
2022-10-09T05:46:15.022Z,4.39
2022-10-09T05:48:44.094Z,4.41
2022-10-09T05:51:10.545Z,4.44
2022-10-09T05:53:38.017Z,4.42
2022-10-09T05:56:31.512Z,4.06
2022-10-09T05:59:01.799Z,4.38
2022-10-09T06:01:32.372Z,4.32
2022-10-09T06:04:00.677Z,4.30
2022-10-09T06:06:29.537Z,4.32
2022-10-09T06:08:56.904Z,4.37
2022-10-09T06:11:28.239Z,4.40
2022-10-09T06:13:56.340Z,4.41
2022-10-09T06:16:25.832Z,4.48
2022-10-09T06:18:53.782Z,4.53
2022-10-09T06:21:20.984Z,4.63
2022-10-09T06:23:52.230Z,4.78
2022-10-09T06:26:19.524Z,5.13
2022-10-09T06:28:46.653Z,5.49
2022-10-09T06:31:17.164Z,5.88
2022-10-09T06:33:44.898Z,6.35
2022-10-09T06:36:14.440Z,6.62
2022-10-09T06:38:41.700Z,7.10
2022-10-09T06:41:11.136Z,7.52
2022-10-09T06:43:38.203Z,8.00
2022-10-09T06:46:07.631Z,8.53
2022-10-09T06:48:35.558Z,8.83
2022-10-09T06:51:08.571Z,9.29
2022-10-09T06:53:40.229Z,9.70
2022-10-09T06:56:08.591Z,9.78
2022-10-09T06:58:35.451Z,9.42
2022-10-09T07:01:11.337Z,9.44
2022-10-09T07:03:40.442Z,9.43
2022-10-09T07:06:13.742Z,9.44
2022-10-09T07:08:42.969Z,9.60
2022-10-09T07:11:10.134Z,9.98
2022-10-09T07:13:36.921Z,9.79
2022-10-09T07:16:04.992Z,9.99
2022-10-09T07:18:35.381Z,10.09
2022-10-09T07:21:03.329Z,10.40
2022-10-09T07:23:31.246Z,10.79
2022-10-09T07:25:58.756Z,11.06
2022-10-09T07:28:27.841Z,11.34
2022-10-09T07:30:54.677Z,11.57
2022-10-09T07:33:21.248Z,11.96
2022-10-09T07:35:58.403Z,12.79
2022-10-09T07:38:25.372Z,13.15
2022-10-09T07:40:53.064Z,13.64
2022-10-09T07:43:20.299Z,14.32
2022-10-09T07:45:47.333Z,14.61
2022-10-09T07:48:14.077Z,14.73
2022-10-09T07:50:40.605Z,15.00
2022-10-09T07:53:08.708Z,15.00
2022-10-09T07:55:35.695Z,15.53
2022-10-09T07:58:02.357Z,15.40
2022-10-09T08:00:28.841Z,15.45
2022-10-09T08:02:55.603Z,15.68
2022-10-09T08:05:22.068Z,16.06
2022-10-09T08:07:48.533Z,16.11
2022-10-09T08:10:15.148Z,15.71
2022-10-09T08:12:41.641Z,15.73
2022-10-09T08:15:08.742Z,14.17
2022-10-09T08:17:35.163Z,13.96
2022-10-09T08:20:01.585Z,14.27
2022-10-09T08:22:28.048Z,14.77
2022-10-09T08:24:54.568Z,15.25
2022-10-09T08:27:21.039Z,15.72
2022-10-09T08:29:47.480Z,15.02
2022-10-09T08:32:14.040Z,15.47
2022-10-09T08:34:40.556Z,16.07
2022-10-09T08:37:07.026Z,16.52
2022-10-09T08:39:33.464Z,16.67
2022-10-09T08:42:04.570Z,16.19
2022-10-09T08:44:37.805Z,16.41
2022-10-09T08:47:38.151Z,15.59
2022-10-09T08:50:09.289Z,15.32
2022-10-09T08:53:00.899Z,15.55
2022-10-09T08:55:43.362Z,16.07
2022-10-09T08:58:15.736Z,16.38
2022-10-09T09:01:09.239Z,16.53
2022-10-09T09:03:46.634Z,17.57
2022-10-09T09:06:35.039Z,17.38
2022-10-09T09:09:10.943Z,18.21
2022-10-09T09:11:58.616Z,18.46
2022-10-09T09:15:02.311Z,18.97
2022-10-09T09:17:47.624Z,18.77
2022-10-09T09:20:37.645Z,18.28
2022-10-09T09:23:12.350Z,18.90
2022-10-09T09:25:42.110Z,18.81
2022-10-09T09:28:31.213Z,18.54
2022-10-09T09:31:02.997Z,17.48
2022-10-09T09:33:36.132Z,17.76
2022-10-09T09:36:16.798Z,18.37
2022-10-09T09:39:10.991Z,17.96
2022-10-09T09:41:30.076Z,18.05
2022-10-09T09:43:56.571Z,17.54
2022-10-09T09:46:29.994Z,16.32
2022-10-09T09:48:56.639Z,16.64
2022-10-09T09:51:30.313Z,16.55
2022-10-09T09:54:00.183Z,16.48
2022-10-09T09:59:40.869Z,16.89
2022-10-09T10:02:27.025Z,16.77
2022-10-09T10:04:58.387Z,17.13
2022-10-09T10:07:28.802Z,16.97
2022-10-09T10:10:06.196Z,17.05
2022-10-09T10:12:33.258Z,17.61
2022-10-09T10:14:59.861Z,16.82
2022-10-09T10:17:30.437Z,18.02
2022-10-09T10:19:57.000Z,16.67
2022-10-09T10:22:26.204Z,16.67
2022-10-09T10:24:55.885Z,16.29
2022-10-09T10:27:32.110Z,17.45
2022-10-09T10:30:02.570Z,17.47
2022-10-09T10:32:36.104Z,17.67
2022-10-09T10:35:04.513Z,17.16
2022-10-09T10:37:47.845Z,17.20
2022-10-09T10:40:17.739Z,16.78
2022-10-09T10:42:58.660Z,17.34
2022-10-09T10:45:33.818Z,17.22
2022-10-09T10:48:03.303Z,17.12
2022-10-09T10:50:37.145Z,17.32
2022-10-09T10:53:12.088Z,17.73
2022-10-09T10:55:41.464Z,18.16
2022-10-09T10:58:41.926Z,17.39
2022-10-09T11:01:17.403Z,17.61
2022-10-09T11:03:55.764Z,17.54
2022-10-09T11:06:42.074Z,17.78
2022-10-09T11:09:34.654Z,17.80
2022-10-09T11:12:30.113Z,18.04
2022-10-09T11:15:24.394Z,17.29
2022-10-09T11:17:57.830Z,17.72
2022-10-09T11:20:52.552Z,18.42
2022-10-09T11:23:37.911Z,17.87
2022-10-09T11:26:16.731Z,17.67
2022-10-09T11:29:18.435Z,17.85
2022-10-09T11:32:04.327Z,18.42
2022-10-09T11:34:37.014Z,18.75
2022-10-09T11:37:09.023Z,18.92
2022-10-09T11:39:37.869Z,19.22
2022-10-09T11:42:06.008Z,19.68
2022-10-09T11:44:53.866Z,19.46
2022-10-09T11:47:56.191Z,19.73
2022-10-09T11:50:49.849Z,20.09
2022-10-09T11:53:20.833Z,20.37
2022-10-09T11:55:48.433Z,19.11
2022-10-09T11:58:25.939Z,19.15
2022-10-09T12:00:55.351Z,18.26
2022-10-09T12:03:34.842Z,18.14
2022-10-09T12:06:06.024Z,17.87
2022-10-09T12:08:33.085Z,18.35
2022-10-09T12:11:20.171Z,18.98
2022-10-09T12:13:56.913Z,18.83
2022-10-09T12:16:31.426Z,19.34
2022-10-09T12:19:00.645Z,19.29
2022-10-09T12:21:56.565Z,19.58
2022-10-09T12:24:27.476Z,19.24
2022-10-09T12:26:56.616Z,18.66
2022-10-09T12:29:47.991Z,18.47
2022-10-09T12:32:19.741Z,18.99
2022-10-09T12:34:49.409Z,19.27
2022-10-09T12:37:21.657Z,19.33
2022-10-09T12:39:49.676Z,19.15
2022-10-09T12:42:24.122Z,18.49
2022-10-09T12:44:54.161Z,18.65
2022-10-09T12:47:26.532Z,18.15
2022-10-09T12:50:00.861Z,18.41
2022-10-09T12:52:27.747Z,18.23
2022-10-09T12:54:54.529Z,18.63
2022-10-09T12:57:24.064Z,18.71
2022-10-09T12:59:54.465Z,18.37
2022-10-09T13:02:22.157Z,18.87
2022-10-09T13:05:00.669Z,19.44
2022-10-09T13:07:29.206Z,18.53
2022-10-09T13:10:06.331Z,18.65
2022-10-09T13:12:33.906Z,18.81
2022-10-09T13:15:04.195Z,18.76
2022-10-09T13:20:23.900Z,18.83
2022-10-09T13:22:59.011Z,18.53
2022-10-09T13:25:28.217Z,18.81
2022-10-09T13:27:54.861Z,18.96
2022-10-09T13:30:21.311Z,18.94
2022-10-09T13:32:47.836Z,18.45
2022-10-09T13:35:16.139Z,18.84
2022-10-09T13:37:46.154Z,18.81
2022-10-09T13:40:20.486Z,18.81
2022-10-09T13:42:57.387Z,19.32
2022-10-09T13:45:23.900Z,19.22
2022-10-09T13:47:50.749Z,19.55
2022-10-09T13:50:18.053Z,18.91
2022-10-09T13:52:44.526Z,19.22
2022-10-09T13:55:11.799Z,19.62
2022-10-09T13:57:38.493Z,19.20
2022-10-09T14:00:06.478Z,18.63
2022-10-09T14:02:33.001Z,19.10
2022-10-09T14:04:59.473Z,19.18
2022-10-09T14:07:26.039Z,19.70
2022-10-09T14:09:52.467Z,19.62
2022-10-09T14:12:18.955Z,18.85
2022-10-09T14:14:45.468Z,18.90
2022-10-09T14:17:11.930Z,19.05
2022-10-09T14:19:38.404Z,18.72
2022-10-09T14:22:04.944Z,18.51
2022-10-09T14:24:31.414Z,18.71
2022-10-09T14:26:57.922Z,19.04
2022-10-09T14:29:24.409Z,19.13
2022-10-09T14:31:51.527Z,18.84
2022-10-09T14:34:18.138Z,18.76
2022-10-09T14:36:44.689Z,18.68
2022-10-09T14:39:11.713Z,18.64
2022-10-09T14:41:38.242Z,18.26
2022-10-09T14:44:05.737Z,18.46
2022-10-09T14:46:33.916Z,18.84
2022-10-09T14:49:07.387Z,18.43
2022-10-09T14:51:38.730Z,18.22
2022-10-09T14:54:06.728Z,18.17
2022-10-09T14:56:34.058Z,17.94
2022-10-09T14:59:01.112Z,18.29
2022-10-09T15:01:29.500Z,17.87
2022-10-09T15:03:56.461Z,18.17
2022-10-09T15:06:25.671Z,18.03
2022-10-09T15:08:56.040Z,17.77
2022-10-09T15:11:23.037Z,17.75
2022-10-09T15:13:49.540Z,17.61
2022-10-09T15:16:17.472Z,17.56
2022-10-09T15:18:44.314Z,17.55
2022-10-09T15:21:23.962Z,17.53
2022-10-09T15:23:53.486Z,17.20
2022-10-09T15:26:20.110Z,16.86
2022-10-09T15:28:46.686Z,17.05
2022-10-09T15:31:22.007Z,17.00
2022-10-09T15:33:50.663Z,17.02
2022-10-09T15:36:17.423Z,16.86
2022-10-09T15:38:43.929Z,16.82
2022-10-09T15:41:26.884Z,16.84
2022-10-09T15:43:56.570Z,16.69
2022-10-09T15:46:23.626Z,16.52
2022-10-09T15:48:50.787Z,16.64
2022-10-09T15:51:18.210Z,16.57
2022-10-09T15:53:46.438Z,16.60
2022-10-09T15:56:15.061Z,16.63
2022-10-09T15:58:41.635Z,16.56
2022-10-09T16:01:10.820Z,16.57
2022-10-09T16:03:38.005Z,16.48
2022-10-09T16:06:07.606Z,16.47
2022-10-09T16:08:34.877Z,16.48
2022-10-09T16:11:05.579Z,16.24
2022-10-09T16:13:32.411Z,16.13
2022-10-09T16:15:59.082Z,15.86
2022-10-09T16:18:25.585Z,16.12
2022-10-09T16:20:52.072Z,16.11
2022-10-09T16:23:18.735Z,16.02
2022-10-09T16:25:56.045Z,15.95
2022-10-09T16:28:22.598Z,15.84
2022-10-09T16:30:49.082Z,15.79
2022-10-09T16:33:15.616Z,15.64
2022-10-09T16:35:42.102Z,15.60
2022-10-09T16:38:09.039Z,15.56
2022-10-09T16:41:00.881Z,15.34
2022-10-09T16:43:22.006Z,15.31
2022-10-09T16:45:48.467Z,15.33
2022-10-09T16:48:14.974Z,15.25
2022-10-09T16:50:42.233Z,15.24
2022-10-09T16:53:09.184Z,15.10
2022-10-09T16:55:35.953Z,15.15
2022-10-09T16:58:02.416Z,15.04
2022-10-09T17:00:29.046Z,14.99
2022-10-09T17:02:55.574Z,14.94
2022-10-09T17:05:22.108Z,14.88
2022-10-09T17:07:48.892Z,14.69
2022-10-09T17:10:15.597Z,14.68
2022-10-09T17:12:42.379Z,14.61
2022-10-09T17:15:08.972Z,14.52
2022-10-09T17:17:35.460Z,14.45
2022-10-09T17:20:01.932Z,14.27
2022-10-09T17:22:28.458Z,13.69
2022-10-09T17:24:54.907Z,14.23
2022-10-09T17:27:21.365Z,14.14
2022-10-09T17:29:47.822Z,13.96
2022-10-09T17:32:14.353Z,13.72
2022-10-09T17:34:45.633Z,13.64
2022-10-09T17:37:13.013Z,13.54
2022-10-09T17:39:39.640Z,13.55
2022-10-09T17:42:06.257Z,13.51
2022-10-09T17:44:32.768Z,13.39
2022-10-09T17:47:00.827Z,13.39
2022-10-09T17:49:27.591Z,13.42
2022-10-09T17:51:54.582Z,13.11
2022-10-09T17:54:21.467Z,13.37
2022-10-09T17:56:48.356Z,13.35
2022-10-09T17:59:15.806Z,13.26
2022-10-09T18:01:42.742Z,13.29
2022-10-09T18:04:14.522Z,13.23
2022-10-09T18:06:41.000Z,13.18
2022-10-09T18:09:07.452Z,13.16
2022-10-09T18:11:33.987Z,13.14
2022-10-09T18:14:00.688Z,13.06
2022-10-09T18:16:36.172Z,13.01
2022-10-09T18:19:06.214Z,12.92
2022-10-09T18:21:34.417Z,12.88
2022-10-09T18:24:00.907Z,12.95
2022-10-09T18:26:27.405Z,12.99
2022-10-09T18:28:53.937Z,13.01
2022-10-09T18:31:23.609Z,13.03
2022-10-09T18:33:50.391Z,13.02
2022-10-09T18:36:20.005Z,12.93
2022-10-09T18:38:52.425Z,12.93
2022-10-09T18:41:20.470Z,12.87
2022-10-09T18:43:47.920Z,12.85
2022-10-09T18:46:17.104Z,12.77
2022-10-09T18:48:44.631Z,12.76
2022-10-09T18:51:15.920Z,12.78
2022-10-09T18:53:45.120Z,12.30
2022-10-09T18:56:12.336Z,12.68
2022-10-09T18:58:41.005Z,12.63
2022-10-09T19:01:07.966Z,12.55
2022-10-09T19:03:36.689Z,12.47
2022-10-09T19:06:04.480Z,12.37
2022-10-09T19:08:31.032Z,12.37
2022-10-09T19:10:57.552Z,12.30
2022-10-09T19:13:25.054Z,12.22
2022-10-09T19:15:53.721Z,12.24
2022-10-09T19:18:21.101Z,12.15
2022-10-09T19:20:48.190Z,12.14
2022-10-09T19:23:15.358Z,12.12
2022-10-09T19:25:55.211Z,12.01
2022-10-09T19:28:23.580Z,11.98
2022-10-09T19:30:51.131Z,11.96
2022-10-09T19:33:18.312Z,11.99
2022-10-09T19:35:49.866Z,12.03
2022-10-09T19:38:17.565Z,11.97
2022-10-09T19:40:44.884Z,11.96
2022-10-09T19:43:12.811Z,11.95
2022-10-09T19:45:39.374Z,11.96
2022-10-09T19:48:06.013Z,11.98
2022-10-09T19:50:32.946Z,12.05
2022-10-09T19:53:03.083Z,12.06
2022-10-09T19:55:33.282Z,12.09
2022-10-09T19:57:59.922Z,12.18
2022-10-09T20:00:26.794Z,12.21
2022-10-09T20:02:53.549Z,12.21
2022-10-09T20:05:20.140Z,12.17
2022-10-09T20:07:46.637Z,12.18
2022-10-09T20:10:13.355Z,12.05
2022-10-09T20:12:39.817Z,12.16
2022-10-09T20:15:07.163Z,12.13
2022-10-09T20:17:33.797Z,12.07
2022-10-09T20:20:04.148Z,12.04
2022-10-09T20:22:30.671Z,12.05
2022-10-09T20:24:57.179Z,11.98
2022-10-09T20:27:23.620Z,11.96
2022-10-09T20:29:52.613Z,11.94
2022-10-09T20:32:19.089Z,11.91
2022-10-09T20:34:45.902Z,11.88
2022-10-09T20:37:12.617Z,11.83
2022-10-09T20:39:39.227Z,11.85
2022-10-09T20:42:05.747Z,11.82
2022-10-09T20:44:32.218Z,11.80
2022-10-09T20:46:58.788Z,11.78
2022-10-09T20:49:25.266Z,11.72
2022-10-09T20:51:53.121Z,11.54
2022-10-09T20:54:21.664Z,11.70
2022-10-09T20:56:49.671Z,11.64
2022-10-09T20:59:17.117Z,11.61
2022-10-09T21:01:43.671Z,11.51
2022-10-09T21:04:11.620Z,11.53
2022-10-09T21:06:38.776Z,11.48
2022-10-09T21:09:05.544Z,11.46
2022-10-09T21:11:34.421Z,11.46
2022-10-09T21:14:02.402Z,11.42
2022-10-09T21:16:29.250Z,11.34
2022-10-09T21:18:59.023Z,11.37
2022-10-09T21:21:26.603Z,11.33
2022-10-09T21:23:54.965Z,11.30
2022-10-09T21:26:22.869Z,11.27
2022-10-09T21:28:52.440Z,11.24
2022-10-09T21:31:26.086Z,11.18
2022-10-09T21:33:52.692Z,11.13
2022-10-09T21:36:36.589Z,11.05
2022-10-09T21:39:05.449Z,10.97
2022-10-09T21:41:32.960Z,10.89
2022-10-09T21:44:00.196Z,10.81
2022-10-09T21:46:26.896Z,10.73
2022-10-09T21:48:53.540Z,10.66
2022-10-09T21:51:20.017Z,10.59
2022-10-09T21:53:46.439Z,10.56
2022-10-09T21:56:13.466Z,10.46
2022-10-09T21:58:40.488Z,10.45
2022-10-09T22:01:07.522Z,10.35
2022-10-09T22:03:36.276Z,10.27
2022-10-09T22:06:08.156Z,10.21
2022-10-09T22:08:34.692Z,10.12
2022-10-09T22:11:07.633Z,10.02
2022-10-09T22:13:34.507Z,10.00
2022-10-09T22:16:04.590Z,9.98
2022-10-09T22:18:31.037Z,9.97
2022-10-09T22:21:04.275Z,9.91
2022-10-09T22:23:30.690Z,9.82
2022-10-09T22:25:59.376Z,9.80
2022-10-09T22:28:25.955Z,9.71
2022-10-09T22:31:19.255Z,9.71
2022-10-09T22:33:57.412Z,9.58
2022-10-09T22:36:26.772Z,9.44
2022-10-09T22:38:55.267Z,9.40
2022-10-09T22:41:23.888Z,9.38
2022-10-09T22:43:53.178Z,9.34
2022-10-09T22:46:25.774Z,9.28
2022-10-09T22:48:53.254Z,9.26
2022-10-09T22:51:21.456Z,9.20
2022-10-09T22:53:49.811Z,9.18
2022-10-09T22:56:19.550Z,9.15
2022-10-09T22:58:46.393Z,9.05
2022-10-09T23:01:17.151Z,9.11
2022-10-09T23:03:44.317Z,9.12
2022-10-09T23:06:14.870Z,9.16
2022-10-09T23:08:43.854Z,9.22
2022-10-09T23:11:11.274Z,9.27
2022-10-09T23:13:37.897Z,9.24
2022-10-09T23:16:06.729Z,9.30
2022-10-09T23:18:34.140Z,9.23
2022-10-09T23:21:06.130Z,9.34
2022-10-09T23:23:34.037Z,9.36
2022-10-09T23:26:08.604Z,9.37
2022-10-09T23:28:35.870Z,9.41
2022-10-09T23:31:07.433Z,9.36
2022-10-09T23:33:34.941Z,9.15
2022-10-09T23:36:05.150Z,9.18
2022-10-09T23:38:31.984Z,9.35
2022-10-09T23:41:00.380Z,9.35
2022-10-09T23:43:28.165Z,9.33
2022-10-09T23:45:56.124Z,9.27
2022-10-09T23:48:22.604Z,9.20
2022-10-09T23:50:51.981Z,9.14
2022-10-09T23:53:19.636Z,9.13
2022-10-09T23:55:46.118Z,8.98
2022-10-09T23:58:17.159Z,9.02
